Kinross, United Kingdom
Current Conditions -  °F | °C
As of 9:20 PM on Friday 24 Oct 2014 (Local Time) from EGPH Reporting Station
Broken Clouds Broken Clouds  
Wind Chill: 50°   Ceiling: 4500
Heat Index: 50°   Visibility: 6mi
Dew Point: 43°   Wind: 14mph
Humidity: 76%   Direction: 230°SW
Pressure: 29.71"   Gusts: NA
Location:  56.2°N, 3.42°W
Report Text: EGPH 242020Z 23012KT 9999 FEW023 BKN045 10/06 Q1006
Loading
Personal Weather Stations






























Interactive Weather Map
Tropical Storm Tracking
New forecast layout! Learn more

10-Day Weather Forecast

Advertisements
Track Severe Weather on mobile